This is the latest recevied weather packets stored in our database for station/object OK2ILA-10. If no packets are shown the sender has not sent any weather packets the latest 10 day(s).
| Time | Temp. | Humidity | Pressure | Rain* | Wind** | Luminosity | Snow |
|---|---|---|---|---|---|---|---|
| 1787973724 | 16.67° C | 85% | 1015.4 hPa | - | - | - | - |
| 1787973124 | 16.67° C | 85% | 1015.4 hPa | - | - | - | - |
| 1787972524 | 16.67° C | 84% | 1015.3 hPa | - | - | - | - |
| 1787971928 | 16.67° C | 83% | 1015.3 hPa | - | - | - | - |
| 1787971924 | 16.67° C | 83% | 1015.3 hPa | - | - | - | - |
| 1787971323 | 17.22° C | 82% | 1015.2 hPa | - | - | - | - |
| 1787970723 | 16.67° C | 82% | 1015.1 hPa | - | - | - | - |
| 1787970123 | 16.67° C | 82% | 1014.9 hPa | - | - | - | - |
| 1787969523 | 17.22° C | 82% | 1014.9 hPa | - | - | - | - |
| 1787968923 | 17.22° C | 82% | 1015 hPa | - | - | - | - |
| 1787968322 | 17.22° C | 82% | 1015.1 hPa | - | - | - | - |
| 1787967722 | 16.67° C | 82% | 1014.9 hPa | - | - | - | - |
| 1787967122 | 16.67° C | 83% | 1014.9 hPa | - | - | - | - |
| 1787966527 | 16.67° C | 83% | 1014.8 hPa | - | - | - | - |
| 1787966522 | 16.67° C | 83% | 1014.8 hPa | - | - | - | - |
| 1787965922 | 16.67° C | 82% | 1014.6 hPa | - | - | - | - |
| 1787965321 | 16.67° C | 82% | 1014.8 hPa | - | - | - | - |
| 1787964721 | 16.67° C | 80% | 1014.9 hPa | - | - | - | - |
| 1787964127 | 17.22° C | 78% | 1015 hPa | - | - | - | - |
| 1787964121 | 17.22° C | 78% | 1015 hPa | - | - | - | - |
| 1787963521 | 17.78° C | 74% | 1015 hPa | - | - | - | - |
| 1787962927 | 18.89° C | 66% | 1014.8 hPa | - | - | - | - |
| 1787962921 | 18.89° C | 66% | 1014.8 hPa | - | - | - | - |
| 1787962327 | 21.11° C | 55% | 1014.3 hPa | - | - | - | - |
| 1787962320 | 21.11° C | 55% | 1014.3 hPa | - | - | - | - |
* Rain since midnight (hover to see other rain measurements)
** Current wind speed in m/s (hover to see current wind gust speed)